Time;durP1;ratioP1;P1;durP2;ratioP2;P2;SDS_P1;SDS_P2;PMS_P1;PMS_P2;Temp;Humidity;BMP_temperature;BMP_pressure;BME280_temperature;BME280_humidity;BME280_pressure;Samples;Min_cycle;Max_cycle;Signal;HPM_P1;HPM_P2
2022/09/01 12:07:53;;;;;;;0.80;0.20;;;;;;;26.46;34.99;101183.28;4950439;28;99168;-72
2022/09/01 12:44:38;;;;;;;0.70;0.10;;;;;;;24.60;37.20;101202.81;4940179;28;97865;-73
2022/09/01 12:48:12;;;;;;;0.70;0.20;;;;;;;24.52;37.23;101208.44;4941508;28;99847;-72
2022/09/01 17:00:11;;;;;;;0.63;0.10;;;;;;;20.88;42.63;101140.56;4895253;28;99084;-71
2022/09/01 17:03:32;;;;;;;0.30;0.10;;;;;;;20.79;42.71;101148.00;4873080;28;98931;-63
2022/09/01 17:06:54;;;;;;;1.45;0.10;;;;;;;20.72;42.89;101155.84;4924172;28;98252;-71
2022/09/01 17:10:28;;;;;;;0.73;0.20;;;;;;;20.65;42.85;101150.84;4944583;28;99942;-63
2022/09/01 17:14:26;;;;;;;0.70;0.10;;;;;;;20.59;43.00;101150.19;4951608;28;98149;-64
2022/09/01 17:17:49;;;;;;;0.73;0.20;;;;;;;20.51;43.11;101148.22;4950427;28;98098;-64
2022/09/01 17:21:01;;;;;;;0.85;0.20;;;;;;;20.45;43.20;101154.16;4922751;28;98010;-64
2022/09/01 17:24:10;;;;;;;0.65;0.10;;;;;;;20.40;43.36;101151.56;4954940;28;98028;-71
2022/09/01 17:27:14;;;;;;;0.85;0.10;;;;;;;20.32;43.44;101155.88;4953649;28;98630;-63
2022/09/01 17:30:30;;;;;;;0.80;0.17;;;;;;;20.25;43.52;101150.03;4946399;28;98570;-63
2022/09/01 17:33:56;;;;;;;0.80;0.20;;;;;;;20.14;43.77;101151.44;4945185;28;99639;-71
2022/09/01 17:37:20;;;;;;;0.25;0.10;;;;;;;20.03;43.84;101156.38;4914862;28;98468;-63
2022/09/01 17:40:32;;;;;;;0.90;0.10;;;;;;;19.95;43.88;101159.88;4951998;28;98074;-64
2022/09/01 17:43:48;;;;;;;0.20;0.10;;;;;;;19.85;43.97;101155.50;4939307;28;98183;-70
2022/09/01 17:47:17;;;;;;;0.47;0.10;;;;;;;19.76;44.13;101165.53;4943264;28;98637;-70
2022/09/01 17:51:06;;;;;;;0.65;0.20;;;;;;;19.66;44.44;101163.09;4966138;28;98192;-71
2022/09/01 17:54:32;;;;;;;0.82;0.20;;;;;;;19.52;44.60;101172.13;4899827;28;99930;-63
2022/09/01 17:58:09;;;;;;;0.70;0.10;;;;;;;19.42;44.68;101174.31;4874165;28;98782;-63
2022/09/01 18:01:52;;;;;;;0.90;0.13;;;;;;;19.31;44.86;101179.19;4830689;28;99252;-71
2022/09/01 18:06:11;;;;;;;0.80;0.20;;;;;;;19.19;45.13;101184.41;4899103;28;98588;-70
2022/09/01 18:09:16;;;;;;;1.10;0.20;;;;;;;19.04;45.23;101177.34;4807875;28;99048;-70
2022/09/01 18:12:37;;;;;;;0.70;0.20;;;;;;;18.94;45.54;101186.56;4917862;28;98222;-64
2022/09/01 18:16:16;;;;;;;0.80;0.20;;;;;;;18.82;46.02;101189.84;4917560;28;99547;-70
2022/09/01 18:19:28;;;;;;;1.30;0.30;;;;;;;18.70;46.10;101178.59;4922686;28;98715;-70
2022/09/01 18:22:44;;;;;;;0.82;0.15;;;;;;;18.60;46.25;101192.44;4914895;28;98104;-63
2022/09/01 18:26:09;;;;;;;0.57;0.30;;;;;;;18.54;46.41;101183.53;4900763;28;98294;-70
2022/09/01 18:29:12;;;;;;;0.60;0.30;;;;;;;18.53;46.68;101189.28;4919216;28;98051;-63
2022/09/01 18:33:03;;;;;;;2.83;0.40;;;;;;;18.54;46.50;101178.06;4917832;28;98206;-70
2022/09/01 18:36:08;;;;;;;0.98;0.20;;;;;;;18.47;46.85;101188.59;4853533;28;98725;-63
2022/09/01 18:39:31;;;;;;;1.60;0.35;;;;;;;18.43;47.00;101192.22;4902418;28;98554;-64
2022/09/01 18:43:00;;;;;;;0.90;0.20;;;;;;;18.35;47.07;101188.25;4926560;28;99554;-63
2022/09/01 18:46:41;;;;;;;1.75;0.22;;;;;;;18.27;47.16;101200.69;4894963;28;98442;-63
2022/09/01 18:50:15;;;;;;;0.77;0.20;;;;;;;18.19;47.41;101189.66;4910650;28;98006;-63
2022/09/01 18:54:14;;;;;;;2.17;0.88;;;;;;;18.11;47.60;101196.63;4899025;28;97820;-63
2022/09/01 18:57:41;;;;;;;3.03;0.70;;;;;;;18.04;47.51;101196.22;4877236;28;98373;-70
2022/09/01 19:00:54;;;;;;;1.00;0.38;;;;;;;17.95;47.87;101198.81;4873065;28;97934;-70
2022/09/01 19:04:18;;;;;;;0.68;0.35;;;;;;;17.89;47.96;101200.03;4936732;28;98073;-63
2022/09/01 19:07:30;;;;;;;1.67;0.50;;;;;;;17.82;47.99;101200.41;4916254;28;98233;-70
2022/09/01 19:11:25;;;;;;;0.90;0.32;;;;;;;17.79;48.19;101198.25;4911267;28;98619;-63
2022/09/01 19:15:39;;;;;;;1.50;0.40;;;;;;;17.71;48.28;101201.63;4821790;28;98356;-63
2022/09/01 19:19:29;;;;;;;1.17;0.40;;;;;;;17.55;48.29;101201.06;4752039;29;98320;-63
2022/09/01 19:22:52;;;;;;;3.47;0.70;;;;;;;17.40;48.68;101201.28;4915387;28;98117;-69
2022/09/01 19:25:57;;;;;;;1.35;0.32;;;;;;;17.32;48.80;101204.69;4933197;28;98676;-71
2022/09/01 19:29:32;;;;;;;1.77;0.40;;;;;;;17.23;48.74;101204.53;4909121;28;99215;-63
2022/09/01 19:32:54;;;;;;;2.60;1.20;;;;;;;17.16;49.13;101209.53;4892696;28;98565;-63
2022/09/01 19:36:03;;;;;;;6.65;1.00;;;;;;;17.06;49.29;101207.78;4905753;28;99933;-63
2022/09/01 19:39:05;;;;;;;3.50;1.30;;;;;;;17.00;49.26;101211.66;4915958;28;99276;-63
2022/09/01 19:42:51;;;;;;;3.17;0.80;;;;;;;16.92;49.63;101220.47;4928677;28;98312;-63
2022/09/01 19:46:25;;;;;;;2.08;0.68;;;;;;;16.81;49.52;101211.63;4859089;28;98132;-63
2022/09/01 19:50:01;;;;;;;1.98;0.60;;;;;;;16.69;49.57;101225.59;4896897;28;98021;-63
2022/09/01 19:53:32;;;;;;;2.00;0.70;;;;;;;16.58;49.81;101231.47;4910562;28;98476;-63
2022/09/01 19:57:01;;;;;;;1.08;0.40;;;;;;;16.50;49.95;101223.94;4909575;28;98388;-63
2022/09/01 20:00:23;;;;;;;2.85;0.50;;;;;;;16.44;50.10;101228.63;4865395;28;98201;-63
2022/09/01 20:03:56;;;;;;;1.48;0.45;;;;;;;16.35;50.06;101231.16;4911534;28;98639;-70
2022/09/01 20:07:21;;;;;;;;;;;;;;;16.29;49.40;101221.44;4907247;28;98066;-70
2022/09/01 20:10:41;;;;;;;1.70;0.80;;;;;;;16.17;49.99;101221.00;4918019;28;98300;-63
2022/09/01 20:14:17;;;;;;;1.42;0.60;;;;;;;16.13;49.97;101219.94;4923426;28;99253;-62
2022/09/01 20:17:44;;;;;;;2.40;0.43;;;;;;;16.07;50.39;101226.53;4880390;28;98413;-70
2022/09/01 20:20:49;;;;;;;1.63;0.47;;;;;;;15.99;50.32;101222.50;4912699;28;98313;-70
2022/09/01 20:24:32;;;;;;;1.75;0.80;;;;;;;15.96;50.60;101223.09;4914443;28;98609;-63
2022/09/01 20:27:55;;;;;;;3.38;0.88;;;;;;;15.90;50.56;101232.38;4876217;28;98378;-70
2022/09/01 20:31:05;;;;;;;4.63;1.20;;;;;;;15.87;50.82;101236.47;4938534;28;97891;-69
2022/09/01 20:34:51;;;;;;;2.08;0.77;;;;;;;15.79;50.79;101234.38;4917413;28;98307;-63
2022/09/01 20:42:30;;;;;;;2.80;0.98;;;;;;;15.67;51.03;101236.63;4924441;28;98453;-63
2022/09/01 20:45:37;;;;;;;2.35;1.00;;;;;;;15.63;51.27;101239.06;4820884;28;98420;-70
2022/09/01 20:48:45;;;;;;;1.95;0.73;;;;;;;15.59;51.45;101235.28;4816243;28;98029;-63
2022/09/01 20:52:00;;;;;;;4.30;0.85;;;;;;;15.54;51.48;101229.91;4914976;28;98291;-70
2022/09/01 20:55:37;;;;;;;1.23;0.70;;;;;;;15.49;51.65;101235.38;4900296;28;99008;-70
2022/09/01 20:58:49;;;;;;;2.40;0.93;;;;;;;15.44;51.70;101238.94;4913635;28;99017;-70
2022/09/01 21:02:14;;;;;;;2.40;1.10;;;;;;;15.39;51.27;101243.56;4919657;28;98379;-69
2022/09/01 21:05:52;;;;;;;2.50;0.73;;;;;;;15.31;51.70;101236.03;4871374;28;98898;-69
2022/09/01 21:09:39;;;;;;;1.73;0.88;;;;;;;15.23;51.75;101240.94;4899508;28;98644;-63
2022/09/01 21:12:58;;;;;;;3.10;0.80;;;;;;;15.11;51.62;101237.75;4894373;28;98899;-69
2022/09/01 21:16:24;;;;;;;2.60;0.68;;;;;;;15.00;51.92;101238.06;4906622;28;98115;-70
2022/09/01 21:19:46;;;;;;;2.28;0.75;;;;;;;14.91;51.90;101249.50;4901827;28;98415;-69
2022/09/01 21:22:50;;;;;;;2.17;0.40;;;;;;;14.84;52.04;101242.75;4913115;28;100326;-63
2022/09/01 21:25:54;;;;;;;3.20;0.50;;;;;;;14.79;52.28;101248.19;4929493;28;98431;-70
2022/09/01 21:29:00;;;;;;;1.00;0.40;;;;;;;14.76;52.26;101249.56;4912766;28;98728;-62
2022/09/01 21:32:14;;;;;;;1.10;0.40;;;;;;;14.71;52.57;101246.88;4926659;28;97944;-63
2022/09/01 21:35:17;;;;;;;0.80;0.40;;;;;;;14.66;52.72;101238.75;4944060;28;98758;-69
2022/09/01 21:38:20;;;;;;;1.65;0.50;;;;;;;14.63;52.65;101248.25;4922416;28;98427;-69
2022/09/01 21:41:24;;;;;;;2.15;0.60;;;;;;;14.56;52.50;101246.91;4928917;28;98375;-69
2022/09/01 21:44:30;;;;;;;1.23;0.50;;;;;;;14.49;52.63;101249.91;4920700;28;98330;-68
2022/09/01 21:47:32;;;;;;;3.20;0.50;;;;;;;14.42;52.74;101244.75;4952849;28;98426;-62
2022/09/01 21:50:39;;;;;;;1.63;0.63;;;;;;;14.39;52.85;101249.91;4911534;28;98117;-62
2022/09/01 21:53:43;;;;;;;1.13;0.47;;;;;;;14.33;53.15;101240.94;4900783;28;98103;-69
2022/09/01 21:56:47;;;;;;;1.58;0.40;;;;;;;14.28;53.10;101240.97;4924839;28;98584;-62
2022/09/01 22:00:02;;;;;;;3.28;0.47;;;;;;;14.25;52.96;101242.31;4943411;28;97900;-62
2022/09/01 22:03:15;;;;;;;1.92;0.50;;;;;;;14.22;53.15;101245.56;4956861;28;98722;-62
2022/09/01 22:06:23;;;;;;;1.83;0.50;;;;;;;14.20;53.40;101242.31;4951143;28;98693;-63
2022/09/01 22:09:25;;;;;;;1.15;0.50;;;;;;;14.15;53.51;101245.03;4956226;28;98017;-63
2022/09/01 22:12:24;;;;;;;2.30;0.68;;;;;;;14.14;53.11;101243.41;4949457;28;100722;-69
2022/09/01 22:15:28;;;;;;;2.67;0.73;;;;;;;14.12;53.35;101248.28;4958622;28;98118;-69
2022/09/01 22:18:22;;;;;;;;;;;;;;;14.12;52.86;101244.78;4943309;28;98258;-62
2022/09/01 22:21:36;;;;;;;2.10;0.70;;;;;;;14.06;53.43;101246.66;4948565;28;98320;-62
2022/09/01 22:24:39;;;;;;;2.47;0.82;;;;;;;14.00;53.37;101245.84;4957831;28;100194;-62
2022/09/01 22:27:34;;;;;;;;;;;;;;;14.01;52.99;101246.66;4947778;28;97945;-62
2022/09/01 22:30:37;;;;;;;2.05;0.50;;;;;;;13.94;53.52;101241.50;4953513;28;98075;-70
2022/09/01 22:33:41;;;;;;;2.00;0.60;;;;;;;13.91;53.86;101235.81;4945258;28;100070;-69
2022/09/01 22:36:57;;;;;;;1.30;0.43;;;;;;;13.88;53.72;101239.09;4943190;28;98835;-69
2022/09/01 22:40:27;;;;;;;1.60;0.50;;;;;;;13.85;53.57;101239.63;4938907;28;97998;-69
2022/09/01 22:43:31;;;;;;;3.08;0.90;;;;;;;13.79;53.99;101243.41;4929511;28;98941;-69
2022/09/01 22:46:34;;;;;;;3.65;1.70;;;;;;;13.74;54.10;101242.31;4948387;28;98421;-62
2022/09/01 22:49:36;;;;;;;5.53;1.80;;;;;;;13.69;54.45;101234.19;4969670;28;97934;-69
2022/09/01 22:52:44;;;;;;;6.30;1.98;;;;;;;13.63;54.50;101237.97;4932560;28;98194;-63
2022/09/01 22:55:49;;;;;;;4.10;1.80;;;;;;;13.60;54.37;101240.41;4942873;28;97988;-62
2022/09/01 22:58:52;;;;;;;7.53;2.20;;;;;;;13.56;54.17;101236.59;4966273;27;98231;-62
2022/09/01 23:01:56;;;;;;;5.82;2.03;;;;;;;13.53;54.44;101240.66;4925325;28;98106;-62
2022/09/01 23:04:58;;;;;;;3.67;1.80;;;;;;;13.48;54.90;101244.19;4963388;27;98052;-69
2022/09/01 23:08:10;;;;;;;4.03;1.33;;;;;;;13.49;54.79;101236.88;4957413;28;99497;-63
2022/09/01 23:11:14;;;;;;;5.05;1.75;;;;;;;13.42;54.73;101230.88;4949718;28;98467;-62
2022/09/01 23:14:17;;;;;;;2.75;1.10;;;;;;;13.42;54.90;101225.47;4942045;28;98602;-62
2022/09/01 23:17:10;;;;;;;;;;;;;;;13.43;53.91;101222.50;4949981;28;97913;-68
2022/09/01 23:20:12;;;;;;;3.10;1.15;;;;;;;13.35;54.57;101231.13;4958719;28;98004;-70
2022/09/01 23:23:25;;;;;;;3.27;0.87;;;;;;;13.35;54.47;101228.44;4949204;28;99253;-69
2022/09/01 23:26:30;;;;;;;2.47;0.75;;;;;;;13.35;54.97;101231.13;4951120;28;98869;-62
2022/09/01 23:29:31;;;;;;;1.70;0.80;;;;;;;13.37;55.27;101228.19;4950942;28;98507;-69
2022/09/01 23:32:34;;;;;;;2.08;0.90;;;;;;;13.36;55.24;101226.53;4950485;28;98027;-63
2022/09/01 23:35:38;;;;;;;1.73;0.65;;;;;;;13.35;55.23;101227.63;4943508;28;98288;-62
2022/09/01 23:38:41;;;;;;;1.42;0.65;;;;;;;13.34;55.24;101228.72;4939001;28;98501;-62
2022/09/01 23:41:37;;;;;;;;;;;;;;;13.37;54.51;101222.78;4954920;28;97907;-70
2022/09/01 23:44:39;;;;;;;1.70;0.70;;;;;;;13.33;55.06;101225.19;4948772;28;98608;-63
2022/09/01 23:47:43;;;;;;;2.17;0.95;;;;;;;13.34;54.97;101224.09;4948661;28;98642;-62
2022/09/01 23:50:58;;;;;;;4.32;0.70;;;;;;;13.34;55.09;101226.81;4956962;28;98380;-69
2022/09/01 23:54:01;;;;;;;1.88;0.70;;;;;;;13.35;55.24;101222.22;4955352;28;98008;-63
2022/09/01 23:57:12;;;;;;;2.70;0.80;;;;;;;13.35;55.29;101225.72;4935754;28;98946;-69
